Adamsville, Utah
Current Conditions -  °F | °C
As of 11:52 AM on Friday 24 Oct 2014 (Local Time) from KMLF Reporting Station
Clear Clear  
Wind Chill: 70°   Ceiling: Unl
Heat Index: 70°   Visibility: 10mi
Dew Point: 34°   Wind: 18mph
Humidity: 27%   Direction: 200°SSW
Pressure: 30.24"   Gusts: NA
Location:  38.2672°N, 112.728°W
Report Text: KMLF 241752Z AUTO 20016KT 10SM CLR 21/01 A3024 RMK AO2 SLP194 T02110011 10217 20044 58001 TSNO
Loading
Personal Weather Stations






























Interactive Weather Map
Tropical Storm Tracking
New forecast layout! Learn more

10-Day Weather Forecast

Advertisements
Track Severe Weather on mobile